METAR AND TAF INFORMATION
METAR FOR LTCC
ADDS - METARS form results

(1035 UTC 21 January 2019)
Data provider http://aviationweather.gov/metar/data/
 
METAR text: LTCC 211020Z VRB04KT CAVOK 05/M03 Q1023 NOSIG RMK RWY16 34004KT 300V050
Conditions at: LTCC (DIYARBAKIR(CIV/A, TR) observed 1020 UTC 21 January 2019
Temperature: 5.0°C (41°F)
Dewpoint: -3.0°C (27°F) [RH = 56%]
Pressure (altimeter): 30.21 inches Hg (1023.0 mb)
Winds: variable direction winds at 5 MPH (4 knots; 2.1 m/s)
Visibility: 6 or more miles (10+ km)
Ceiling: ceiling and visibility are OK
Clouds: unknown
Weather: no significant weather observed at this time

METAR text: LTCC 210950Z VRB03KT CAVOK 05/M03 Q1023 NOSIG RMK RWY16 VRB03KT
Conditions at: LTCC (DIYARBAKIR(CIV/A, TR) observed 0950 UTC 21 January 2019
Temperature: 5.0°C (41°F)
Dewpoint: -3.0°C (27°F) [RH = 56%]
Pressure (altimeter): 30.21 inches Hg (1023.0 mb)
Winds: variable direction winds at 3 MPH (3 knots; 1.5 m/s)
Visibility: 6 or more miles (10+ km)
Ceiling: ceiling and visibility are OK
Clouds: unknown
Weather: no significant weather observed at this time

Forecast for: LTCC (DIYARBAKIR(CIV/A, TR)
Text: TAF LTCC 210440Z 2106/2206 VRB02KT CAVOK
Forecast period: 0600 to 1500 UTC 21 January 2019
Forecast type: FROM: standard forecast or significant change
Winds: variable direction winds at 2 MPH (2 knots; 1.0 m/s)
Visibility: 6 or more miles 10+ km)
Ceiling: unknown
Clouds: missing
Weather: NSW  (no significant weather)
Text: BECMG 2115/2117 FEW040 BKN100
Forecast period: 1500 UTC 21 January 2019 to 0600 UTC 22 January 2019
Forecast type: BECOMING: Conditions expected to become as follows by 1700 UTC 21 January 2019
Winds: variable direction winds at 2 MPH (2 knots; 1.0 m/s)
Visibility: 6 or more miles 10+ km)
Ceiling: 10000 feet AGL
Clouds: few clouds at 4000 feet AGL
broken clouds at 10000 feet AGL
Weather: NSW  (no significant weather)

 AIRPORT MAP

 RUNWAY INFORMATION
Runway 16 Runway length 11644 ft Runway width 148 ft
Runway elevation 2251 ft Runway displaced threshold 0 ft Runway heading 163
Runway 34 Runway length 11644 ft Runway width 148 ft
Runway elevation 2176 ft Runway displaced threshold 0 ft Runway heading 343

 AIRPORT FREQUENCIES
Type ACP Name MAC ALCE Frequency 123.2 MHZ
Type APP Name APP Frequency 122.1 MHZ
Type ATIS Name ATIS Frequency 122.425 MHZ
Type GND Name GND Frequency 122.1 MHZ
Type TWR Name TWR Frequency 118.1 MHZ

 AIRPORT NEAR NAVIGATION AIDS
Type TACAN Name Diyarbakir Frequency 110000 KHZ
Type VOR-DME Name Diyarbakir Frequency 109400 KHZ
Type NDB Name Diyarbakir Frequency 330 KHZ



Copyright © 2007-2018 Istanbul Virtual Airlines.All rights reserved.Developed by Arca Erdik and Aykut Alp Kurt.